createdAt,value
2022-09-02T00:00:00.117Z,0
2022-09-02T00:05:00.290Z,0
2022-09-02T00:10:00.566Z,0
2022-09-02T00:15:00.281Z,0
2022-09-02T00:20:00.172Z,0
2022-09-02T00:24:59.978Z,0
2022-09-02T00:30:00.391Z,0
2022-09-02T00:35:00.601Z,0
2022-09-02T00:40:00.004Z,0
2022-09-02T00:45:00.587Z,0
2022-09-02T00:50:00.178Z,0
2022-09-02T00:55:00.321Z,0
2022-09-02T01:00:00.001Z,0
2022-09-02T01:05:00.915Z,0
2022-09-02T01:10:00.146Z,0
2022-09-02T01:15:00.526Z,0
2022-09-02T01:20:00.282Z,0
2022-09-02T01:24:59.923Z,0
2022-09-02T01:30:00.281Z,0
2022-09-02T01:35:00.103Z,0
2022-09-02T01:40:00.090Z,0
2022-09-02T01:45:00.297Z,0
2022-09-02T01:50:00.041Z,0
2022-09-02T01:54:59.905Z,0
2022-09-02T02:00:00.015Z,0
2022-09-02T02:04:59.997Z,0
2022-09-02T02:10:00.028Z,0
2022-09-02T02:15:00.541Z,0
2022-09-02T02:19:59.905Z,0
2022-09-02T02:25:00.116Z,0
2022-09-02T02:30:00.501Z,0
2022-09-02T02:35:00.244Z,0
2022-09-02T02:39:59.869Z,0
2022-09-02T02:44:59.851Z,0
2022-09-02T02:50:00.064Z,0
2022-09-02T02:55:00.025Z,0
2022-09-02T03:00:00.118Z,0
2022-09-02T03:04:59.941Z,0
2022-09-02T03:10:00.303Z,0
2022-09-02T03:15:00.060Z,0
2022-09-02T03:19:59.947Z,0
2022-09-02T03:24:59.940Z,0
2022-09-02T03:30:00.031Z,0
2022-09-02T03:35:00.093Z,0
2022-09-02T03:40:00.695Z,0
2022-09-02T03:45:00.162Z,0
2022-09-02T03:50:00.029Z,0
2022-09-02T03:55:00.249Z,0
2022-09-02T04:00:00.196Z,0
2022-09-02T04:04:59.926Z,0
2022-09-02T04:10:00.392Z,0
2022-09-02T04:14:59.887Z,0
2022-09-02T04:19:59.779Z,0
2022-09-02T04:24:59.914Z,0
2022-09-02T04:29:59.816Z,0
2022-09-02T04:35:00.243Z,0
2022-09-02T04:40:00.217Z,0
2022-09-02T04:45:00.063Z,0
2022-09-02T04:49:59.979Z,0.5
2022-09-02T04:54:59.990Z,1.2
2022-09-02T05:00:00.157Z,2.4
2022-09-02T05:04:59.978Z,3.8
2022-09-02T05:10:00.506Z,6.1
2022-09-02T05:15:00.273Z,8.8
2022-09-02T05:19:59.737Z,12.4
2022-09-02T05:24:59.975Z,16.2
2022-09-02T05:29:59.839Z,20.1
2022-09-02T05:34:59.947Z,22.9
2022-09-02T05:39:59.940Z,24.3
2022-09-02T05:44:59.925Z,26.2
2022-09-02T05:50:00.002Z,29.3
2022-09-02T05:54:59.989Z,32
2022-09-02T06:00:00.031Z,34.6
2022-09-02T06:05:00.032Z,37.3
2022-09-02T06:10:00.027Z,40.5
2022-09-02T06:14:59.703Z,42.9
2022-09-02T06:19:59.988Z,45.7
2022-09-02T06:24:59.808Z,51.6
2022-09-02T06:30:00.019Z,55.6
2022-09-02T06:34:59.897Z,54.4
2022-09-02T06:40:00.004Z,51.8
2022-09-02T06:44:59.749Z,51
2022-09-02T06:49:59.689Z,52.2
2022-09-02T06:55:00.021Z,52.5
2022-09-02T07:00:02.210Z,52.7
2022-09-02T07:04:59.908Z,53.3
2022-09-02T07:09:59.901Z,53.8
2022-09-02T07:14:59.845Z,54.4
2022-09-02T07:19:59.964Z,54
2022-09-02T07:24:59.732Z,55.9
2022-09-02T07:29:59.898Z,58.5
2022-09-02T07:34:59.622Z,62.5
2022-09-02T07:40:00.233Z,66.4
2022-09-02T07:44:59.840Z,71.4
2022-09-02T07:50:18.993Z,76.7
2022-09-02T07:55:00.196Z,82.2
2022-09-02T07:59:59.986Z,87.1
2022-09-02T08:04:59.945Z,91.5
2022-09-02T08:09:59.669Z,95.7
2022-09-02T08:14:59.829Z,98
2022-09-02T08:20:00.281Z,100.3
2022-09-02T08:24:59.637Z,102.6
2022-09-02T08:29:59.851Z,108
2022-09-02T08:34:59.886Z,110.6
2022-09-02T08:39:59.878Z,113.3
2022-09-02T08:44:59.580Z,115.7
2022-09-02T08:50:02.788Z,117.8
2022-09-02T08:54:59.900Z,122.9
2022-09-02T08:59:59.859Z,127.1
2022-09-02T09:04:59.908Z,133.8
2022-09-02T09:10:04.901Z,136.5
2022-09-02T09:14:59.551Z,136.5
2022-09-02T09:19:59.569Z,135.6
2022-09-02T09:24:59.737Z,133.9
2022-09-02T09:29:59.638Z,135.6
2022-09-02T09:35:01.429Z,136.3
2022-09-02T09:39:59.590Z,135.6
2022-09-02T09:44:59.873Z,133.8
2022-09-02T09:50:09.149Z,130.1
2022-09-02T09:54:59.898Z,129.7
2022-09-02T09:59:59.815Z,133.1
2022-09-02T10:04:59.719Z,136.2
2022-09-02T10:10:07.975Z,137
2022-09-02T10:14:59.827Z,137.8
2022-09-02T10:20:04.873Z,136.1
2022-09-02T10:25:04.627Z,138.9
2022-09-02T10:29:59.657Z,142.4
2022-09-02T10:34:59.768Z,148.6
2022-09-02T10:39:59.869Z,164
2022-09-02T10:44:59.510Z,164.9
2022-09-02T10:49:59.842Z,170.8
2022-09-02T10:54:59.788Z,185.5
2022-09-02T11:00:02.507Z,201
2022-09-02T11:04:59.484Z,210.3
2022-09-02T11:09:59.690Z,224.2
2022-09-02T11:15:00.146Z,238.9
2022-09-02T11:20:03.810Z,258.9
2022-09-02T11:24:59.552Z,278.4
2022-09-02T11:29:59.507Z,311.3
2022-09-02T11:34:59.640Z,346.4
2022-09-02T11:40:30.406Z,374.9
2022-09-02T11:44:59.472Z,432
2022-09-02T11:50:07.652Z,474.3
2022-09-02T11:55:02.511Z,512.7
2022-09-02T12:00:03.822Z,545.7
2022-09-02T12:05:42.961Z,580.9
2022-09-02T12:09:59.613Z,616.5
2022-09-02T12:14:59.773Z,641.2
2022-09-02T12:19:59.618Z,681.3
2022-09-02T12:24:59.734Z,723.6
2022-09-02T12:29:59.452Z,765.1
2022-09-02T12:34:59.548Z,823.6
2022-09-02T12:39:59.814Z,877.8
2022-09-02T12:44:59.743Z,867.3
2022-09-02T12:49:59.798Z,858.9
2022-09-02T12:54:59.786Z,433.2
2022-09-02T12:59:59.952Z,670.2
2022-09-02T13:04:59.467Z,622.4
2022-09-02T13:10:13.424Z,828.8
2022-09-02T13:14:59.466Z,941
2022-09-02T13:19:59.407Z,926.4
2022-09-02T13:25:23.092Z,826.7
2022-09-02T13:29:59.447Z,737.5
2022-09-02T13:34:59.517Z,677.7
2022-09-02T13:39:59.629Z,617.6
2022-09-02T13:45:07.651Z,588.8
2022-09-02T13:49:59.421Z,598
2022-09-02T13:54:59.367Z,619.6
2022-09-02T13:59:59.706Z,630.9
2022-09-02T14:04:59.430Z,592.4
2022-09-02T14:09:59.464Z,521
2022-09-02T14:14:59.556Z,517.8
2022-09-02T14:20:02.074Z,557.7
2022-09-02T14:24:59.700Z,587.2
2022-09-02T14:29:59.556Z,585.7
2022-09-02T14:34:59.682Z,579.2
2022-09-02T14:40:05.156Z,551
2022-09-02T14:44:59.616Z,553.9
2022-09-02T14:50:00.814Z,568.8
2022-09-02T14:54:59.934Z,582.3
2022-09-02T14:59:59.751Z,617
2022-09-02T15:04:59.395Z,675.1
2022-09-02T15:09:59.473Z,705.1
2022-09-02T15:14:59.635Z,734.2
2022-09-02T15:19:59.648Z,631.3
2022-09-02T15:24:59.737Z,638.9
2022-09-02T15:29:59.782Z,645.4
2022-09-02T15:34:59.334Z,452.9
2022-09-02T15:39:59.511Z,539.8
2022-09-02T15:44:59.353Z,491.7
2022-09-02T15:49:59.288Z,403.5
2022-09-02T15:54:59.354Z,451.4
2022-09-02T15:59:59.523Z,432.8
2022-09-02T16:04:59.366Z,234.1
2022-09-02T16:10:03.368Z,197.8
2022-09-02T16:14:59.763Z,196.7
2022-09-02T16:19:59.559Z,213.8
2022-09-02T16:24:59.326Z,194.4
2022-09-02T16:29:59.664Z,141
2022-09-02T16:34:59.340Z,137.3
2022-09-02T16:40:00.075Z,97.9
2022-09-02T16:44:59.708Z,73
2022-09-02T16:49:59.584Z,58.5
2022-09-02T16:54:59.410Z,49.6
2022-09-02T16:59:59.558Z,45.4
2022-09-02T17:04:59.392Z,45.4
2022-09-02T17:09:59.491Z,45.4
2022-09-02T17:14:59.342Z,45.4
2022-09-02T17:19:59.348Z,40.2
2022-09-02T17:24:59.207Z,35.8
2022-09-02T17:29:59.442Z,32.1
2022-09-02T17:34:59.733Z,30.5
2022-09-02T17:39:59.946Z,27.5
2022-09-02T17:44:59.363Z,27
2022-09-02T17:49:59.291Z,27
2022-09-02T17:54:59.319Z,27
2022-09-02T18:00:02.180Z,27
2022-09-02T18:04:59.349Z,27
2022-09-02T18:09:59.326Z,27
2022-09-02T18:14:59.487Z,27
2022-09-02T18:19:59.305Z,27
2022-09-02T18:25:00.543Z,27
2022-09-02T18:30:00.549Z,17.4
2022-09-02T18:35:00.356Z,6
2022-09-02T18:40:02.915Z,3
2022-09-02T18:45:00.544Z,1
2022-09-02T18:50:00.197Z,0.3
2022-09-02T18:55:00.565Z,0.1
2022-09-02T19:00:00.271Z,0
2022-09-02T19:05:01.542Z,0
2022-09-02T19:10:00.376Z,0
2022-09-02T19:15:00.276Z,0
2022-09-02T19:20:00.458Z,0
2022-09-02T19:25:01.330Z,0
2022-09-02T19:30:02.560Z,0
2022-09-02T19:35:01.447Z,0
2022-09-02T19:40:03.878Z,0
2022-09-02T19:45:00.398Z,0
2022-09-02T19:50:00.486Z,0
2022-09-02T19:55:00.275Z,0
2022-09-02T20:00:00.312Z,0
2022-09-02T20:05:00.443Z,0
2022-09-02T20:10:00.350Z,0
2022-09-02T20:50:05.432Z,0
2022-09-02T20:55:02.044Z,0
2022-09-02T21:00:03.130Z,0
2022-09-02T21:05:00.260Z,0
2022-09-02T21:10:00.410Z,0
2022-09-02T21:15:00.138Z,0
2022-09-02T21:20:00.113Z,0
2022-09-02T21:25:00.429Z,0
2022-09-02T21:30:02.586Z,0
2022-09-02T21:35:02.546Z,0
2022-09-02T21:40:00.385Z,0
2022-09-02T21:45:00.283Z,0
2022-09-02T21:50:07.450Z,0
2022-09-02T21:55:02.713Z,0
2022-09-02T22:00:00.083Z,0
2022-09-02T22:05:02.327Z,0
2022-09-02T22:10:00.374Z,0
2022-09-02T22:15:02.381Z,0
2022-09-02T22:20:00.340Z,0
2022-09-02T22:25:00.387Z,0
2022-09-02T22:30:00.433Z,0
2022-09-02T22:35:00.433Z,0
2022-09-02T22:40:00.424Z,0
2022-09-02T22:45:00.266Z,0
2022-09-02T22:50:00.263Z,0
2022-09-02T22:55:00.391Z,0
2022-09-02T23:00:02.177Z,0
2022-09-02T23:05:00.385Z,0
2022-09-02T23:10:00.379Z,0
2022-09-02T23:15:00.078Z,0
2022-09-02T23:20:05.788Z,0
2022-09-02T23:25:00.339Z,0
2022-09-02T23:30:00.572Z,0
2022-09-02T23:35:06.555Z,0
2022-09-02T23:40:00.382Z,0
2022-09-02T23:45:00.278Z,0
2022-09-02T23:50:00.324Z,0
2022-09-02T23:55:00.031Z,0
